Time;durP1;ratioP1;P1;durP2;ratioP2;P2;SDS_P1;SDS_P2;PMS_P1;PMS_P2;Temp;Humidity;BMP_temperature;BMP_pressure;BME280_temperature;BME280_humidity;BME280_pressure;Samples;Min_cycle;Max_cycle;Signal;HPM_P1;HPM_P2
2022/10/17 00:01:56;;;;;;;18.35;5.88;;;19.40;99.90;;;;;;5099944;28;20389;-88
2022/10/17 00:04:22;;;;;;;16.73;5.70;;;19.40;99.90;;;;;;5099071;28;20084;-86
2022/10/17 00:06:48;;;;;;;14.38;5.43;;;19.40;99.90;;;;;;5119270;27;20078;-85
2022/10/17 00:09:14;;;;;;;15.18;5.07;;;19.40;99.90;;;;;;5087997;28;20020;-87
2022/10/17 00:11:39;;;;;;;11.85;5.43;;;19.40;99.90;;;;;;5108907;28;20047;-83
2022/10/17 00:14:05;;;;;;;19.75;5.93;;;19.50;99.90;;;;;;5102903;28;20053;-84
2022/10/17 00:16:36;;;;;;;13.13;5.68;;;19.40;99.90;;;;;;5102824;28;20106;-88
2022/10/17 00:19:03;;;;;;;14.95;5.60;;;19.50;99.90;;;;;;5099154;28;20023;-85
2022/10/17 00:21:29;;;;;;;11.27;5.75;;;19.50;99.90;;;;;;5098451;28;20028;-85
2022/10/17 00:23:55;;;;;;;16.85;6.13;;;19.60;99.90;;;;;;5113797;28;20020;-84
2022/10/17 00:26:21;;;;;;;11.25;5.40;;;19.50;99.90;;;;;;5113548;28;20016;-85
2022/10/17 00:28:49;;;;;;;14.23;5.70;;;19.50;99.90;;;;;;5114093;28;20488;-88
2022/10/17 00:31:17;;;;;;;19.00;7.28;;;19.50;99.90;;;;;;5098152;28;20028;-88
2022/10/17 00:33:43;;;;;;;17.15;6.55;;;19.50;99.90;;;;;;5098415;28;20023;-87
2022/10/17 00:36:19;;;;;;;19.13;5.70;;;19.60;99.90;;;;;;5097679;28;20515;-87
2022/10/17 00:38:47;;;;;;;16.63;6.50;;;19.50;99.90;;;;;;5113876;28;20020;-87
2022/10/17 00:41:16;;;;;;;16.05;5.57;;;19.50;99.90;;;;;;5113223;28;20038;-88
2022/10/17 00:43:57;;;;;;;11.70;6.05;;;19.50;99.90;;;;;;5113810;28;20028;-86
2022/10/17 00:46:37;;;;;;;18.40;6.47;;;19.50;99.90;;;;;;5094952;28;20020;-86
2022/10/17 00:49:11;;;;;;;21.43;6.87;;;19.50;99.90;;;;;;5115025;28;20437;-86
2022/10/17 00:51:42;;;;;;;24.08;6.28;;;19.50;99.90;;;;;;5113691;28;20104;-85
2022/10/17 00:54:09;;;;;;;;;;;19.50;99.90;;;;;;5114747;28;20031;-89
2022/10/17 00:56:35;;;;;;;17.17;6.43;;;19.50;99.90;;;;;;5124304;27;20293;-84
2022/10/17 00:59:02;;;;;;;12.05;5.85;;;19.50;99.90;;;;;;5097736;28;20522;-82
2022/10/17 01:01:27;;;;;;;12.30;6.25;;;19.50;99.90;;;;;;5096849;28;20110;-86
2022/10/17 01:03:53;;;;;;;13.82;6.68;;;19.50;99.90;;;;;;5099622;28;20046;-85
2022/10/17 01:06:19;;;;;;;15.38;6.78;;;19.50;99.90;;;;;;5097765;28;20075;-83
2022/10/17 01:08:45;;;;;;;18.50;6.05;;;19.50;99.90;;;;;;5113425;28;20020;-87
2022/10/17 01:11:38;;;;;;;16.80;5.95;;;19.50;99.90;;;;;;5096760;28;20044;-86
2022/10/17 01:14:21;;;;;;;16.52;6.03;;;19.50;99.90;;;;;;5113820;28;20032;-84
2022/10/17 01:17:06;;;;;;;14.80;5.93;;;19.50;99.90;;;;;;5113841;28;20032;-85
2022/10/17 01:20:03;;;;;;;15.23;5.75;;;19.50;99.90;;;;;;5113639;28;20502;-84
2022/10/17 01:22:46;;;;;;;17.30;6.95;;;19.60;99.90;;;;;;5116884;27;20078;-87
2022/10/17 01:25:32;;;;;;;15.15;5.85;;;19.60;99.90;;;;;;5100443;28;20016;-87
2022/10/17 01:28:30;;;;;;;13.05;6.13;;;19.60;99.90;;;;;;5095795;28;20464;-85
2022/10/17 01:31:13;;;;;;;23.83;6.28;;;19.60;99.90;;;;;;5097763;28;20557;-84
2022/10/17 01:33:53;;;;;;;16.23;5.55;;;19.60;99.90;;;;;;5104964;28;20063;-85
2022/10/17 01:36:25;;;;;;;;;;;19.60;99.90;;;;;;5117628;28;20031;-86
2022/10/17 01:39:11;;;;;;;15.48;6.22;;;19.60;99.90;;;;;;5129711;27;19912;-86
2022/10/17 01:41:49;;;;;;;12.40;6.15;;;19.60;99.90;;;;;;5112710;27;20032;-86
2022/10/17 01:44:23;;;;;;;20.90;5.78;;;19.60;99.90;;;;;;5101665;28;20499;-86
2022/10/17 01:46:53;;;;;;;17.25;6.20;;;19.60;99.90;;;;;;5101365;28;20028;-83
2022/10/17 01:49:26;;;;;;;16.70;5.13;;;19.70;99.90;;;;;;5108099;28;20080;-86
2022/10/17 01:52:22;;;;;;;15.15;5.88;;;19.60;99.90;;;;;;5080846;28;20043;-87
2022/10/17 01:54:53;;;;;;;13.93;4.70;;;19.70;99.90;;;;;;5115018;27;20485;-87
2022/10/17 01:57:49;;;;;;;12.05;5.78;;;19.70;99.90;;;;;;5114122;28;20070;-86
2022/10/17 02:00:19;;;;;;;18.67;5.30;;;19.80;99.90;;;;;;5105180;28;20031;-87
2022/10/17 02:02:47;;;;;;;15.65;6.50;;;19.80;99.90;;;;;;5117121;28;20024;-88
2022/10/17 02:05:13;;;;;;;12.73;5.22;;;19.80;99.90;;;;;;5117251;28;20032;-85
2022/10/17 02:07:41;;;;;;;16.02;6.70;;;19.80;99.90;;;;;;5117311;28;20027;-86
2022/10/17 02:10:14;;;;;;;16.20;5.25;;;19.80;99.90;;;;;;5101556;28;20472;-87
2022/10/17 02:12:56;;;;;;;19.15;5.45;;;19.80;99.90;;;;;;5117406;28;20085;-84
2022/10/17 02:16:04;;;;;;;15.85;5.18;;;19.80;99.90;;;;;;5113379;28;20024;-86
2022/10/17 02:18:45;;;;;;;15.00;5.55;;;19.90;99.90;;;;;;5097508;27;20412;-82
2022/10/17 02:21:14;;;;;;;11.27;5.03;;;19.80;99.90;;;;;;5100033;28;20097;-81
2022/10/17 02:23:40;;;;;;;12.15;4.53;;;19.80;99.90;;;;;;5099321;28;20024;-85
2022/10/17 02:26:12;;;;;;;15.95;4.57;;;19.90;99.90;;;;;;5115092;28;20467;-85
2022/10/17 02:28:53;;;;;;;12.85;5.38;;;19.80;99.90;;;;;;5106902;28;20038;-86
2022/10/17 02:31:25;;;;;;;21.40;5.35;;;19.80;99.90;;;;;;5103787;28;20434;-86
2022/10/17 02:34:00;;;;;;;11.02;4.50;;;19.80;99.90;;;;;;5113743;27;20028;-86
2022/10/17 02:36:33;;;;;;;17.92;5.07;;;19.80;99.90;;;;;;5114932;28;20016;-83
2022/10/17 02:39:02;;;;;;;18.75;5.10;;;19.80;99.90;;;;;;5116540;28;20024;-87
2022/10/17 02:41:30;;;;;;;11.65;4.70;;;19.80;99.90;;;;;;5108811;27;20012;-86
2022/10/17 02:43:56;;;;;;;13.15;4.55;;;19.80;99.90;;;;;;5105533;28;20020;-87
2022/10/17 02:46:26;;;;;;;13.30;4.68;;;19.80;99.90;;;;;;5104532;28;20720;-86
2022/10/17 02:48:56;;;;;;;19.53;4.97;;;19.80;99.90;;;;;;5104744;28;20024;-85
2022/10/17 02:51:37;;;;;;;16.17;4.45;;;19.80;99.90;;;;;;5115885;28;20020;-86
2022/10/17 02:54:11;;;;;;;13.55;4.82;;;19.80;99.90;;;;;;5116197;28;20028;-86
2022/10/17 02:56:49;;;;;;;23.80;5.82;;;19.80;99.90;;;;;;5100849;28;20024;-88
2022/10/17 02:59:19;;;;;;;13.02;5.18;;;19.80;99.90;;;;;;5114551;27;20020;-88
2022/10/17 03:01:46;;;;;;;11.88;4.70;;;19.80;99.90;;;;;;5115467;28;20024;-85
2022/10/17 03:04:13;;;;;;;12.02;4.88;;;19.80;99.90;;;;;;5115905;28;20070;-84
2022/10/17 03:06:40;;;;;;;12.32;4.10;;;19.80;99.90;;;;;;5098897;28;20028;-87
2022/10/17 03:09:07;;;;;;;12.77;4.18;;;19.80;99.90;;;;;;5098633;28;20013;-85
2022/10/17 03:11:33;;;;;;;17.00;6.40;;;19.80;99.90;;;;;;5099552;28;20504;-81
2022/10/17 03:13:59;;;;;;;17.58;4.85;;;19.80;99.90;;;;;;5115442;28;20048;-83
2022/10/17 03:16:25;;;;;;;13.40;4.20;;;19.90;99.90;;;;;;5115677;28;20031;-84
2022/10/17 03:18:51;;;;;;;12.45;4.30;;;19.80;99.90;;;;;;5099756;28;20016;-85
2022/10/17 03:21:16;;;;;;;14.77;5.28;;;19.80;99.90;;;;;;5118736;27;20481;-88
2022/10/17 03:23:42;;;;;;;9.85;4.20;;;19.80;99.90;;;;;;5117095;28;20016;-85
2022/10/17 03:26:09;;;;;;;12.05;4.85;;;19.80;99.90;;;;;;5132724;27;20019;-90
2022/10/17 03:28:35;;;;;;;14.82;4.97;;;19.80;99.90;;;;;;5121623;27;20023;-83
2022/10/17 03:31:06;;;;;;;16.95;3.97;;;19.70;99.90;;;;;;5105622;28;20066;-81
2022/10/17 03:33:32;;;;;;;12.50;4.88;;;19.70;99.90;;;;;;5103778;28;20034;-87
2022/10/17 03:35:58;;;;;;;12.85;4.32;;;19.70;99.90;;;;;;5102722;28;20028;-82
2022/10/17 03:38:24;;;;;;;14.45;4.82;;;19.70;99.90;;;;;;5099109;28;20091;-86
2022/10/17 03:40:56;;;;;;;18.10;4.28;;;19.70;99.90;;;;;;5115040;28;20426;-87
2022/10/17 03:43:22;;;;;;;12.25;4.43;;;19.80;99.90;;;;;;5115193;28;20028;-86
2022/10/17 03:45:47;;;;;;;12.38;4.85;;;19.80;99.90;;;;;;5099110;28;20033;-83
2022/10/17 03:48:13;;;;;;;11.50;3.78;;;19.80;99.90;;;;;;5099266;28;20047;-85
2022/10/17 03:50:39;;;;;;;13.65;4.25;;;19.70;99.90;;;;;;5099011;28;20146;-83
2022/10/17 03:53:05;;;;;;;16.65;5.70;;;19.70;99.90;;;;;;5114542;28;20502;-86
2022/10/17 03:55:31;;;;;;;14.07;4.90;;;19.70;99.90;;;;;;5114837;28;20024;-87
2022/10/17 03:57:58;;;;;;;12.77;4.05;;;19.70;99.90;;;;;;5117259;28;20502;-82
2022/10/17 04:00:24;;;;;;;13.27;5.47;;;19.70;99.90;;;;;;5101260;28;20052;-87
2022/10/17 04:02:50;;;;;;;15.02;5.07;;;19.70;99.90;;;;;;5114905;28;20028;-85
2022/10/17 04:05:19;;;;;;;15.35;4.80;;;19.70;99.90;;;;;;5097683;28;20043;-83
2022/10/17 04:07:45;;;;;;;13.27;4.53;;;19.70;99.90;;;;;;5114380;28;20024;-84
2022/10/17 04:10:11;;;;;;;18.55;5.28;;;19.70;99.90;;;;;;5099116;28;20505;-82
2022/10/17 04:12:37;;;;;;;17.45;4.93;;;19.70;99.90;;;;;;5115111;28;20496;-85
2022/10/17 04:15:04;;;;;;;10.88;4.15;;;19.70;99.90;;;;;;5100042;28;20012;-83
2022/10/17 04:17:30;;;;;;;14.60;5.25;;;19.70;99.90;;;;;;5125195;27;20455;-83
2022/10/17 04:19:56;;;;;;;13.65;4.82;;;19.60;99.90;;;;;;5103108;28;20024;-86
2022/10/17 04:22:22;;;;;;;22.00;4.45;;;19.60;99.90;;;;;;5122966;27;20024;-88
2022/10/17 04:24:48;;;;;;;14.57;4.30;;;19.60;99.90;;;;;;5109976;28;20020;-86
2022/10/17 04:27:13;;;;;;;14.50;4.47;;;19.50;99.90;;;;;;5120765;27;20032;-86
2022/10/17 04:29:39;;;;;;;15.20;5.60;;;19.50;99.90;;;;;;5100050;28;20042;-80
2022/10/17 04:32:05;;;;;;;12.40;4.47;;;19.50;99.90;;;;;;5107000;28;20032;-83
2022/10/17 04:34:31;;;;;;;11.35;4.60;;;19.50;99.90;;;;;;5098005;28;20028;-85
2022/10/17 04:36:57;;;;;;;14.77;3.72;;;19.50;99.90;;;;;;5098236;28;20024;-86
2022/10/17 04:39:23;;;;;;;12.18;5.05;;;19.60;99.90;;;;;;5103574;28;20077;-82
2022/10/17 04:41:49;;;;;;;20.67;5.78;;;19.60;99.90;;;;;;5114395;28;20055;-81
2022/10/17 04:44:14;;;;;;;22.50;5.78;;;19.60;99.90;;;;;;5126249;27;20056;-85
2022/10/17 04:46:40;;;;;;;12.23;4.53;;;19.60;99.90;;;;;;5113978;28;20028;-86
2022/10/17 04:49:07;;;;;;;14.75;4.95;;;19.50;99.90;;;;;;5113786;28;20027;-89
2022/10/17 04:51:33;;;;;;;19.52;5.00;;;19.50;99.90;;;;;;5098193;28;20381;-82
2022/10/17 04:53:59;;;;;;;14.07;5.63;;;19.50;99.90;;;;;;5096257;28;20028;-85
2022/10/17 04:56:24;;;;;;;19.13;5.70;;;19.50;99.90;;;;;;5097245;28;20024;-82
2022/10/17 04:58:51;;;;;;;17.88;4.60;;;19.50;99.90;;;;;;5084756;28;20035;-86
2022/10/17 05:01:20;;;;;;;17.77;4.78;;;19.50;99.90;;;;;;5113890;28;20384;-87
2022/10/17 05:03:46;;;;;;;12.77;5.43;;;19.50;99.90;;;;;;5111141;28;20097;-84
2022/10/17 05:06:14;;;;;;;23.67;5.63;;;19.50;99.90;;;;;;5115151;28;20039;-86
2022/10/17 05:08:41;;;;;;;11.77;4.38;;;19.50;99.90;;;;;;5108969;28;20028;-82
2022/10/17 05:11:24;;;;;;;7.43;3.92;;;19.50;99.90;;;;;;5107216;28;20079;-84
2022/10/17 05:13:56;;;;;;;14.52;5.15;;;19.40;99.90;;;;;;5114402;28;20015;-84
2022/10/17 05:16:22;;;;;;;19.05;5.15;;;19.40;99.90;;;;;;5115243;28;20376;-83
2022/10/17 05:18:52;;;;;;;13.82;4.72;;;19.40;99.90;;;;;;5114165;28;20149;-88
2022/10/17 05:21:19;;;;;;;11.23;3.92;;;19.40;99.90;;;;;;5114167;27;20072;-85
2022/10/17 05:23:44;;;;;;;12.70;4.55;;;19.50;99.90;;;;;;5112438;28;20029;-85
2022/10/17 05:26:11;;;;;;;13.85;5.40;;;19.40;99.90;;;;;;5114877;28;20035;-87
2022/10/17 05:28:37;;;;;;;13.75;4.43;;;19.40;99.90;;;;;;5128816;27;20032;-86
2022/10/17 05:31:04;;;;;;;14.88;5.25;;;19.40;99.90;;;;;;5113686;28;20058;-84
2022/10/17 05:33:31;;;;;;;12.98;5.85;;;19.40;99.90;;;;;;5103587;28;20079;-85
2022/10/17 05:35:57;;;;;;;16.40;5.63;;;19.40;99.90;;;;;;5108960;28;20047;-82
2022/10/17 05:38:24;;;;;;;13.05;4.38;;;19.40;99.90;;;;;;5095654;28;20091;-85
2022/10/17 05:40:50;;;;;;;11.10;5.03;;;19.50;99.90;;;;;;5108705;28;20024;-84
2022/10/17 05:43:16;;;;;;;14.38;4.15;;;19.50;99.90;;;;;;5111204;28;20020;-85
2022/10/17 05:45:41;;;;;;;15.25;4.95;;;19.50;99.90;;;;;;5097293;28;20053;-85
2022/10/17 05:48:10;;;;;;;17.88;4.38;;;19.60;99.90;;;;;;5122434;28;20024;-86
2022/10/17 05:50:36;;;;;;;27.05;5.72;;;19.60;99.90;;;;;;5096730;28;20369;-85
2022/10/17 05:53:02;;;;;;;15.82;5.10;;;19.50;99.90;;;;;;5097453;28;20042;-88
2022/10/17 05:55:28;;;;;;;10.77;4.35;;;19.50;99.90;;;;;;5124236;28;20020;-86
2022/10/17 05:57:54;;;;;;;20.27;5.50;;;19.50;99.90;;;;;;5096682;28;20437;-85
2022/10/17 06:00:20;;;;;;;14.18;4.72;;;19.60;99.90;;;;;;5112613;28;20024;-85
2022/10/17 06:02:47;;;;;;;16.58;4.57;;;19.60;99.90;;;;;;5098064;28;20036;-83
2022/10/17 06:05:13;;;;;;;9.57;4.13;;;19.60;99.90;;;;;;5100756;28;20035;-83
2022/10/17 06:07:39;;;;;;;14.65;5.18;;;19.50;99.90;;;;;;5116977;28;20055;-85
2022/10/17 06:10:06;;;;;;;12.25;5.22;;;19.60;99.90;;;;;;5096160;28;20055;-86
2022/10/17 06:12:36;;;;;;;13.30;5.47;;;19.60;99.90;;;;;;5096177;28;20039;-82
2022/10/17 06:15:02;;;;;;;15.70;5.07;;;19.60;99.90;;;;;;5092957;28;20059;-87
2022/10/17 06:17:29;;;;;;;14.55;5.10;;;19.60;99.90;;;;;;5096766;28;20032;-84
2022/10/17 06:19:56;;;;;;;13.10;5.13;;;19.60;99.90;;;;;;5096336;28;20012;-87
2022/10/17 06:22:22;;;;;;;15.73;4.65;;;19.60;99.90;;;;;;5096510;28;20493;-84
2022/10/17 06:24:48;;;;;;;8.30;3.78;;;19.60;99.90;;;;;;5129860;27;20027;-82
2022/10/17 06:27:13;;;;;;;16.92;5.88;;;19.60;99.90;;;;;;5111200;28;20038;-84
2022/10/17 06:29:39;;;;;;;14.20;4.88;;;19.60;99.90;;;;;;5112592;28;20024;-87
2022/10/17 06:32:06;;;;;;;12.95;4.93;;;19.50;99.90;;;;;;5121482;27;20425;-85
2022/10/17 06:34:32;;;;;;;15.05;4.80;;;19.50;99.90;;;;;;5103153;28;20039;-83
2022/10/17 06:36:57;;;;;;;14.52;4.78;;;19.50;99.90;;;;;;5098986;28;20024;-87
2022/10/17 06:39:25;;;;;;;15.20;5.07;;;19.50;99.90;;;;;;5098162;28;20016;-86
2022/10/17 06:41:51;;;;;;;13.85;4.47;;;19.50;99.90;;;;;;5099613;28;20055;-86
2022/10/17 06:44:17;;;;;;;15.00;5.10;;;19.60;99.90;;;;;;5098375;28;20035;-86
2022/10/17 06:46:43;;;;;;;12.32;4.65;;;19.50;99.90;;;;;;5100336;28;20062;-86
2022/10/17 06:49:09;;;;;;;10.85;4.47;;;19.50;99.90;;;;;;5115602;28;20026;-86
2022/10/17 06:51:36;;;;;;;14.32;4.70;;;19.50;99.90;;;;;;5100639;28;20020;-87
2022/10/17 06:54:03;;;;;;;14.43;5.22;;;19.60;99.90;;;;;;5099545;28;20031;-84
2022/10/17 06:56:29;;;;;;;22.27;5.20;;;19.60;99.90;;;;;;5112480;28;20027;-85
2022/10/17 06:58:54;;;;;;;16.85;4.57;;;19.70;99.90;;;;;;5104838;28;20016;-83
2022/10/17 07:01:21;;;;;;;12.68;3.60;;;19.70;99.90;;;;;;5098904;28;20055;-84
2022/10/17 07:03:48;;;;;;;17.63;5.15;;;19.80;99.90;;;;;;5100061;28;20016;-85
2022/10/17 07:06:14;;;;;;;11.48;4.40;;;19.90;99.90;;;;;;5099381;28;20016;-84
2022/10/17 07:08:44;;;;;;;12.48;4.72;;;20.00;99.90;;;;;;5112583;28;20045;-83
2022/10/17 07:11:12;;;;;;;16.05;5.20;;;20.00;99.90;;;;;;5096119;28;20079;-86
2022/10/17 07:13:39;;;;;;;13.80;5.97;;;20.00;99.90;;;;;;5098870;28;20503;-86
2022/10/17 07:16:05;;;;;;;17.08;5.45;;;20.10;99.90;;;;;;5115571;28;20027;-85
2022/10/17 07:18:31;;;;;;;21.27;5.78;;;20.20;99.90;;;;;;5099587;28;20012;-84
2022/10/17 07:20:57;;;;;;;13.45;4.32;;;20.20;99.90;;;;;;5115317;28;20852;-86
2022/10/17 07:23:23;;;;;;;15.75;4.32;;;20.30;99.90;;;;;;5118102;27;20041;-88
2022/10/17 07:25:49;;;;;;;19.60;5.25;;;20.30;99.90;;;;;;5117160;28;20084;-84
2022/10/17 07:28:16;;;;;;;9.65;4.15;;;20.50;99.90;;;;;;5113369;28;20072;-84
2022/10/17 07:30:42;;;;;;;13.63;4.65;;;20.50;99.90;;;;;;5105683;28;20024;-83
2022/10/17 07:33:07;;;;;;;23.05;4.53;;;20.60;99.90;;;;;;5102680;28;20738;-85
2022/10/17 07:35:33;;;;;;;14.63;4.50;;;20.70;99.90;;;;;;5105978;28;20016;-83
2022/10/17 07:37:59;;;;;;;17.33;5.22;;;20.80;99.90;;;;;;5097107;28;20024;-87
2022/10/17 07:40:25;;;;;;;15.82;4.05;;;20.90;99.90;;;;;;5102164;28;20035;-88
2022/10/17 07:42:51;;;;;;;14.85;4.63;;;21.00;99.90;;;;;;5099643;28;20024;-88
2022/10/17 07:45:17;;;;;;;14.63;3.97;;;21.00;99.90;;;;;;5099182;28;20024;-87
2022/10/17 07:47:43;;;;;;;9.55;4.13;;;21.10;99.90;;;;;;5113635;28;20119;-86
2022/10/17 07:50:09;;;;;;;14.15;3.78;;;21.10;99.90;;;;;;5105562;28;20023;-87
2022/10/17 07:52:35;;;;;;;17.65;4.47;;;21.10;99.90;;;;;;5098992;28;20032;-89
2022/10/17 07:55:01;;;;;;;15.05;4.25;;;21.20;99.90;;;;;;5104989;28;20042;-86
2022/10/17 07:57:26;;;;;;;16.13;4.10;;;21.20;99.90;;;;;;5099865;28;20384;-88
2022/10/17 07:59:53;;;;;;;12.55;4.15;;;21.20;99.90;;;;;;5118874;27;20047;-89
2022/10/17 08:02:24;;;;;;;16.80;4.43;;;21.30;99.90;;;;;;5098097;28;20028;-81
2022/10/17 08:04:51;;;;;;;16.35;4.70;;;21.40;99.90;;;;;;5099959;28;20019;-82
2022/10/17 08:07:18;;;;;;;13.93;4.13;;;21.50;99.90;;;;;;5098987;28;20103;-86
2022/10/17 08:09:45;;;;;;;19.67;4.00;;;21.50;99.90;;;;;;5097193;28;20107;-83
2022/10/17 08:12:13;;;;;;;10.98;3.83;;;21.50;99.90;;;;;;5113971;28;20807;-85
2022/10/17 08:14:39;;;;;;;14.30;4.55;;;21.40;99.90;;;;;;5099258;28;20042;-85
2022/10/17 08:17:05;;;;;;;15.43;4.18;;;21.40;99.90;;;;;;5099285;28;20039;-89
2022/10/17 08:19:31;;;;;;;14.60;3.97;;;21.40;99.90;;;;;;5105694;28;20028;-86
2022/10/17 08:21:58;;;;;;;11.57;4.00;;;21.30;99.90;;;;;;5097137;28;20035;-84
2022/10/17 08:24:24;;;;;;;13.75;4.40;;;21.30;99.90;;;;;;5097380;28;20016;-83
2022/10/17 08:26:52;;;;;;;9.93;3.28;;;21.30;99.90;;;;;;5097770;28;20086;-83
2022/10/17 08:29:18;;;;;;;18.58;4.15;;;21.30;99.90;;;;;;5096400;28;20468;-82
2022/10/17 08:31:45;;;;;;;13.43;4.20;;;21.30;99.90;;;;;;5109402;28;20033;-86
2022/10/17 08:34:10;;;;;;;19.48;4.07;;;21.30;99.90;;;;;;5117134;27;20054;-85
2022/10/17 08:36:36;;;;;;;14.77;4.38;;;21.30;99.90;;;;;;5111302;28;20024;-87
2022/10/17 08:39:02;;;;;;;11.73;4.57;;;21.40;99.90;;;;;;5112021;28;20529;-85
2022/10/17 08:42:00;;;;;;;14.20;3.45;;;21.40;99.90;;;;;;5097833;28;20016;-83
2022/10/17 08:44:40;;;;;;;19.13;5.05;;;21.40;99.90;;;;;;5095380;28;20024;-87
2022/10/17 08:47:13;;;;;;;8.70;3.80;;;21.50;99.90;;;;;;5097341;28;20103;-86
2022/10/17 08:50:05;;;;;;;18.95;4.28;;;21.50;99.90;;;;;;5097519;28;20020;-82
2022/10/17 08:52:37;;;;;;;18.27;4.40;;;21.50;99.90;;;;;;5093520;28;20040;-83
2022/10/17 08:55:11;;;;;;;15.95;5.10;;;21.50;99.90;;;;;;5097275;28;20024;-83
2022/10/17 08:57:37;;;;;;;15.75;4.38;;;21.50;99.90;;;;;;5097164;28;20023;-82
2022/10/17 09:00:07;;;;;;;9.13;4.43;;;21.50;99.90;;;;;;5097316;28;20500;-86
2022/10/17 09:02:37;;;;;;;;;;;21.50;99.90;;;;;;5097345;28;20024;-83
2022/10/17 09:05:09;;;;;;;14.77;4.30;;;21.50;99.90;;;;;;5116267;27;19958;-83
2022/10/17 09:07:50;;;;;;;26.25;5.53;;;21.50;99.90;;;;;;5096749;28;20095;-87
2022/10/17 09:10:46;;;;;;;55.28;8.63;;;21.50;99.90;;;;;;5086033;28;20032;-86
2022/10/17 09:13:27;;;;;;;24.90;6.45;;;21.50;99.90;;;;;;5088845;28;20039;-86
2022/10/17 09:16:13;;;;;;;;;;;21.60;99.90;;;;;;5110702;28;20115;-85
2022/10/17 09:18:50;;;;;;;26.63;4.60;;;21.60;99.90;;;;;;5094717;28;19965;-87
2022/10/17 09:21:38;;;;;;;19.15;4.82;;;21.60;99.90;;;;;;5100987;28;20459;-87
2022/10/17 09:24:12;;;;;;;14.18;4.13;;;21.70;99.90;;;;;;5089938;28;20028;-84
2022/10/17 09:26:40;;;;;;;16.20;4.50;;;21.70;99.90;;;;;;5102574;28;20035;-83
2022/10/17 09:29:23;;;;;;;15.10;4.45;;;21.70;99.90;;;;;;5107878;28;20507;-84
2022/10/17 09:32:02;;;;;;;16.25;5.03;;;21.70;99.90;;;;;;5092519;28;20058;-88
2022/10/17 09:34:31;;;;;;;12.30;3.95;;;21.80;99.90;;;;;;5124181;28;20032;-83
2022/10/17 09:37:01;;;;;;;13.50;4.25;;;21.70;99.90;;;;;;5107287;28;20028;-84
2022/10/17 09:39:31;;;;;;;16.85;4.28;;;21.70;99.90;;;;;;5101567;28;20034;-85
2022/10/17 09:41:59;;;;;;;27.48;4.88;;;21.70;99.90;;;;;;5131206;28;20039;-87
2022/10/17 09:44:31;;;;;;;18.08;4.20;;;21.80;99.90;;;;;;5101963;28;20077;-84
2022/10/17 09:47:23;;;;;;;19.63;5.45;;;21.80;99.90;;;;;;5095260;28;20034;-87
2022/10/17 09:49:49;;;;;;;10.27;4.30;;;21.80;99.90;;;;;;5078388;28;20020;-86
2022/10/17 09:52:35;;;;;;;12.65;4.10;;;21.70;99.90;;;;;;5111594;28;20024;-88
2022/10/17 09:55:05;;;;;;;15.23;4.60;;;21.70;99.90;;;;;;5096395;28;21831;-85
2022/10/17 09:57:50;;;;;;;;;;;21.70;99.90;;;;;;5107689;28;20027;-86
2022/10/17 10:00:23;;;;;;;12.45;4.30;;;21.70;99.90;;;;;;5113581;28;19915;-85
2022/10/17 10:02:49;;;;;;;17.48;4.43;;;21.80;99.90;;;;;;5101569;28;20388;-86
2022/10/17 10:05:17;;;;;;;17.60;4.45;;;21.80;99.90;;;;;;5104347;28;20034;-84
2022/10/17 10:08:00;;;;;;;13.48;3.95;;;21.80;99.90;;;;;;5119303;28;20022;-84
2022/10/17 10:10:27;;;;;;;12.90;3.92;;;21.80;99.90;;;;;;5095008;28;20052;-83
2022/10/17 10:13:19;;;;;;;18.23;4.75;;;21.80;99.90;;;;;;5104883;28;20432;-82
2022/10/17 10:15:46;;;;;;;16.83;4.22;;;21.80;99.90;;;;;;5105974;28;20054;-82
2022/10/17 10:18:24;;;;;;;13.18;4.07;;;21.80;99.90;;;;;;5130553;27;20024;-82
2022/10/17 10:21:05;;;;;;;13.30;4.25;;;21.70;99.90;;;;;;5103867;28;20069;-80
2022/10/17 10:23:31;;;;;;;14.13;3.95;;;21.70;99.90;;;;;;5099822;28;20024;-82
2022/10/17 10:26:00;;;;;;;15.30;4.63;;;21.70;99.90;;;;;;5102840;28;20037;-82
2022/10/17 10:28:30;;;;;;;17.00;4.57;;;21.60;99.90;;;;;;5111778;28;20020;-81
2022/10/17 10:30:59;;;;;;;18.38;4.78;;;21.60;99.90;;;;;;5105947;28;20046;-81
2022/10/17 10:33:28;;;;;;;16.83;4.65;;;21.60;99.90;;;;;;5112402;28;20094;-79
2022/10/17 10:36:02;;;;;;;14.27;4.78;;;21.50;99.90;;;;;;5085469;28;20442;-80
2022/10/17 10:38:31;;;;;;;11.85;5.18;;;21.50;99.90;;;;;;5099836;28;20080;-84
2022/10/17 10:41:06;;;;;;;14.70;4.53;;;21.50;99.90;;;;;;5115823;28;20028;-82
2022/10/17 10:43:37;;;;;;;15.10;4.60;;;21.40;99.90;;;;;;5125590;27;20081;-84
2022/10/17 10:46:16;;;;;;;;;;;21.40;99.90;;;;;;5100940;28;20123;-83
2022/10/17 10:48:51;;;;;;;12.00;5.20;;;21.40;99.90;;;;;;5115315;28;19914;-83
2022/10/17 10:51:26;;;;;;;14.65;4.70;;;21.40;99.90;;;;;;5115592;28;20020;-82
2022/10/17 10:54:35;;;;;;;13.90;4.38;;;21.30;99.90;;;;;;5099591;28;20031;-81
2022/10/17 10:57:06;;;;;;;11.48;4.88;;;21.40;99.90;;;;;;5051800;28;20263;-85
2022/10/17 10:59:49;;;;;;;26.02;5.22;;;21.30;99.90;;;;;;5039962;28;20104;-85
2022/10/17 11:02:39;;;;;;;13.38;4.45;;;21.30;99.90;;;;;;5108867;27;20033;-85
2022/10/17 11:05:20;;;;;;;14.10;5.10;;;21.30;99.90;;;;;;5121577;27;20028;-83
2022/10/17 11:07:58;;;;;;;11.40;4.13;;;21.30;99.90;;;;;;5119427;27;20036;-83
2022/10/17 11:10:34;;;;;;;14.90;6.13;;;21.30;99.90;;;;;;5123303;27;20512;-84
2022/10/17 11:13:18;;;;;;;13.93;4.28;;;21.40;99.90;;;;;;5105604;28;20032;-83
2022/10/17 11:15:54;;;;;;;15.30;4.82;;;21.50;99.90;;;;;;5103296;28;20019;-82
2022/10/17 11:18:25;;;;;;;10.77;5.07;;;21.60;99.90;;;;;;5110716;28;20070;-85
2022/10/17 11:21:00;;;;;;;17.23;4.40;;;21.70;99.90;;;;;;5115138;28;20053;-81
2022/10/17 11:23:47;;;;;;;17.58;5.63;;;21.80;99.90;;;;;;5090076;28;20055;-83
2022/10/17 11:26:26;;;;;;;13.80;5.53;;;21.90;99.90;;;;;;5098741;28;20028;-82
2022/10/17 11:28:53;;;;;;;29.15;6.30;;;21.90;99.90;;;;;;5101753;28;20012;-83
2022/10/17 11:31:22;;;;;;;14.02;4.35;;;22.00;99.90;;;;;;5110809;28;20057;-82
2022/10/17 11:34:18;;;;;;;16.95;5.15;;;22.00;99.90;;;;;;5106642;28;20012;-82
2022/10/17 11:36:46;;;;;;;16.33;4.43;;;22.00;99.90;;;;;;5101830;28;20019;-81
2022/10/17 11:39:37;;;;;;;17.90;4.18;;;22.10;99.90;;;;;;5099789;28;20054;-81
2022/10/17 11:42:08;;;;;;;;;;;22.20;99.90;;;;;;5097826;28;20035;-82
2022/10/17 11:44:39;;;;;;;19.27;4.93;;;22.20;99.90;;;;;;5099362;28;19943;-83
2022/10/17 11:47:25;;;;;;;15.20;4.75;;;22.40;99.90;;;;;;5114782;28;20061;-87
2022/10/17 11:49:59;;;;;;;15.60;4.55;;;22.70;99.90;;;;;;5108496;28;20485;-87
2022/10/17 11:52:36;;;;;;;11.30;4.32;;;22.90;99.90;;;;;;5098985;28;20024;-85
2022/10/17 11:55:13;;;;;;;13.70;4.70;;;23.00;99.90;;;;;;5080752;28;20029;-86
2022/10/17 11:57:50;;;;;;;17.92;4.90;;;23.10;99.90;;;;;;5097172;28;20062;-82
2022/10/17 12:00:53;;;;;;;18.98;5.05;;;23.00;99.90;;;;;;5093141;28;20032;-81
2022/10/17 12:03:45;;;;;;;31.27;4.93;;;22.90;99.90;;;;;;5091100;28;20047;-81
2022/10/17 12:06:23;;;;;;;13.43;5.13;;;22.90;99.90;;;;;;5098293;28;20054;-81
2022/10/17 12:08:57;;;;;;;13.20;3.97;;;22.90;99.90;;;;;;5098004;28;20019;-82
2022/10/17 12:11:49;;;;;;;20.15;4.78;;;22.70;99.90;;;;;;5113707;28;20044;-80
2022/10/17 12:14:37;;;;;;;20.10;4.80;;;22.50;99.90;;;;;;5119710;27;20027;-80
2022/10/17 12:17:22;;;;;;;11.90;4.63;;;22.60;99.90;;;;;;5099305;28;20032;-81
2022/10/17 12:19:48;;;;;;;12.65;4.57;;;22.60;99.90;;;;;;5103212;28;20491;-84
2022/10/17 12:22:24;;;;;;;18.55;5.40;;;22.90;99.90;;;;;;5121679;27;20115;-85
2022/10/17 12:25:03;;;;;;;13.88;4.65;;;23.20;99.90;;;;;;5106924;28;20091;-81
2022/10/17 12:27:37;;;;;;;19.55;4.80;;;23.20;99.90;;;;;;5116295;27;20111;-82
2022/10/17 12:30:12;;;;;;;19.27;3.97;;;23.20;99.90;;;;;;5095886;28;20055;-81
2022/10/17 12:33:04;;;;;;;17.83;3.65;;;23.20;99.90;;;;;;5097690;28;20038;-81
2022/10/17 12:35:32;;;;;;;10.05;3.42;;;23.10;99.90;;;;;;5099867;28;20447;-81
2022/10/17 12:38:01;;;;;;;13.77;4.13;;;23.00;99.90;;;;;;5098804;27;20028;-82
2022/10/17 12:40:36;;;;;;;10.25;3.78;;;22.90;99.90;;;;;;5097499;28;20024;-83
2022/10/17 12:43:27;;;;;;;16.35;4.57;;;22.90;99.90;;;;;;5097738;28;20518;-82
2022/10/17 12:46:01;;;;;;;13.23;4.30;;;23.00;99.90;;;;;;5110945;28;20439;-82
2022/10/17 12:48:33;;;;;;;14.38;4.55;;;23.10;99.90;;;;;;5113162;28;20028;-83
2022/10/17 12:51:03;;;;;;;14.43;5.07;;;23.20;99.90;;;;;;5098521;28;20046;-83
2022/10/17 12:53:39;;;;;;;;;;;23.30;99.90;;;;;;5107809;28;20110;-83
2022/10/17 12:56:06;;;;;;;12.57;4.93;;;23.40;99.90;;;;;;5097328;28;19946;-83
2022/10/17 12:58:34;;;;;;;15.15;5.22;;;23.50;99.90;;;;;;5113132;28;20024;-81
2022/10/17 13:01:00;;;;;;;13.85;4.55;;;23.50;99.90;;;;;;5097247;28;20077;-81
2022/10/17 13:03:33;;;;;;;12.98;3.92;;;23.50;99.90;;;;;;5121207;27;20027;-83